This is the latest recevied weather packets stored in our database for station/object KC4JIR. If no packets are shown the sender has not sent any weather packets the latest 10 day(s).
| Time | Temp. | Humidity | Pressure | Rain* | Wind** | Luminosity | Snow |
|---|---|---|---|---|---|---|---|
| 1777753125 | 22.22° C | 65% | 1009 hPa | 0 mm | - | 633 W/m² | - |
| 1777752821 | 21.67° C | 70% | 1009.2 hPa | 0 mm | - | 164 W/m² | - |
| 1777752517 | 21.67° C | 65% | 1008.9 hPa | 0 mm | - | 421 W/m² | - |
| 1777752213 | 18.89° C | 81% | 1009.2 hPa | 0 mm | - | 653 W/m² | - |
| 1777751911 | 19.44° C | 76% | 1009.3 hPa | 0 mm | - | 64 W/m² | - |
| 1777751608 | 19.44° C | 76% | 1009.3 hPa | 0 mm | - | 64 W/m² | - |
| 1777751305 | 19.44° C | 76% | 1009.2 hPa | 0 mm | - | 64 W/m² | - |
| 1777750697 | 20° C | 70% | 1009.3 hPa | 0 mm | - | 138 W/m² | - |
| 1777750394 | 20° C | 70% | 1009.2 hPa | 0 mm | - | 138 W/m² | - |
| 1777750089 | 20.56° C | 79% | 1009.4 hPa | 0 mm | - | 414 W/m² | - |
| 1777749787 | 20.56° C | 79% | 1009.2 hPa | 0 mm | - | 414 W/m² | - |
| 1777749484 | 20.56° C | 79% | 1009.5 hPa | 0 mm | - | 414 W/m² | - |
| 1777749182 | 20.56° C | 71% | 1009.5 hPa | 0 mm | - | 340 W/m² | - |
| 1777748879 | 20° C | 73% | 1009.7 hPa | 0 mm | - | 473 W/m² | - |
| 1777748576 | 20° C | 77% | 1009.3 hPa | 0 mm | - | 355 W/m² | - |
| 1777748271 | 19.44° C | 80% | 1009.4 hPa | 0 mm | - | 430 W/m² | - |
| 1777747967 | 19.44° C | 80% | 1009.4 hPa | 0 mm | - | 430 W/m² | - |
| 1777747664 | 19.44° C | 76% | 1009.6 hPa | 0 mm | - | 445 W/m² | - |
| 1777747360 | 19.44° C | 80% | 1009.3 hPa | 0 mm | - | 319 W/m² | - |
| 1777746753 | 18.33° C | 86% | 1009.7 hPa | 0 mm | - | 214 W/m² | - |
| 1777746448 | 18.33° C | 86% | 1009.9 hPa | 0 mm | - | 214 W/m² | - |
| 1777746144 | 18.33° C | 86% | 1009.8 hPa | 0 mm | - | 214 W/m² | - |
| 1777745841 | 17.78° C | 83% | 1009.9 hPa | 0 mm | - | 273 W/m² | - |
| 1777745540 | 17.78° C | 84% | 1010 hPa | 0 mm | - | 288 W/m² | - |
| 1777745237 | 17.78° C | 82% | 1010 hPa | 0 mm | - | 216 W/m² | - |
* Rain latest hour (hover to see other rain measurements)
** Current wind speed in m/s (hover to see current wind gust speed)